createdAt,value
2023-01-19T00:01:39.593Z,99658.94
2023-01-19T00:04:07.716Z,99658.09
2023-01-19T00:06:37.351Z,99658.94
2023-01-19T00:09:05.293Z,99657.19
2023-01-19T00:11:33.131Z,99658.03
2023-01-19T00:14:01.075Z,99655.47
2023-01-19T00:16:29.178Z,99666.56
2023-01-19T00:18:57.056Z,99655.41
2023-01-19T00:21:25.046Z,99656.25
2023-01-19T00:23:54.320Z,99661.34
2023-01-19T00:26:23.168Z,99655.31
2023-01-19T00:28:51.283Z,99651.91
2023-01-19T00:31:21.722Z,99660.44
2023-01-19T00:33:51.580Z,99664.69
2023-01-19T00:36:20.583Z,99662.09
2023-01-19T00:38:48.653Z,99662.94
2023-01-19T00:41:18.454Z,99662.09
2023-01-19T00:43:45.628Z,99652.66
2023-01-19T00:46:13.653Z,99654.31
2023-01-19T00:48:41.753Z,99655.16
2023-01-19T00:51:09.791Z,99653.41
2023-01-19T00:53:37.723Z,99664.53
2023-01-19T00:56:06.070Z,99663.69
2023-01-19T00:58:35.656Z,99671.38
2023-01-19T01:01:04.911Z,99673.06
2023-01-19T01:03:33.719Z,99664.50
2023-01-19T01:06:03.572Z,99663.63
2023-01-19T01:08:31.584Z,99666.19
2023-01-19T01:10:59.434Z,99662.81
2023-01-19T01:13:28.466Z,99657.66
2023-01-19T01:15:58.511Z,99661.09
2023-01-19T01:18:26.417Z,99666.22
2023-01-19T01:21:01.366Z,99656.81
2023-01-19T01:23:29.387Z,99662.84
2023-01-19T01:25:57.221Z,99667.09
2023-01-19T01:28:25.510Z,99665.41
2023-01-19T01:30:55.142Z,99661.13
2023-01-19T01:33:41.113Z,99682.56
2023-01-19T01:36:10.598Z,99674.88
2023-01-19T01:38:39.288Z,99678.31
2023-01-19T01:41:07.385Z,99675.78
2023-01-19T01:43:46.794Z,99674.09
2023-01-19T01:46:17.038Z,99673.25
2023-01-19T01:48:52.426Z,99672.38
2023-01-19T01:51:25.530Z,99670.69
2023-01-19T01:54:01.336Z,99682.63
2023-01-19T01:57:02.794Z,99677.44
2023-01-19T01:59:39.370Z,99686.03
2023-01-19T02:02:28.133Z,99685.97
2023-01-19T02:05:04.019Z,99679.94
2023-01-19T02:07:57.009Z,99681.63
2023-01-19T02:10:42.440Z,99679.03
2023-01-19T02:13:25.772Z,99684.19
2023-01-19T02:15:55.570Z,99684.19
2023-01-19T02:18:25.578Z,99690.19
2023-01-19T02:21:01.820Z,99679.94
2023-01-19T02:23:50.557Z,99686.78
2023-01-19T02:26:21.776Z,99686.00
2023-01-19T02:28:54.099Z,99698.03
2023-01-19T02:31:22.305Z,99686.94
2023-01-19T02:34:04.456Z,99684.41
2023-01-19T02:36:36.854Z,99687.03
2023-01-19T02:39:09.419Z,99688.78
2023-01-19T02:41:45.285Z,99687.09
2023-01-19T02:44:16.290Z,99686.25
2023-01-19T02:46:44.099Z,99689.69
2023-01-19T02:49:14.905Z,99680.34
2023-01-19T02:51:45.101Z,99687.22
2023-01-19T02:54:31.096Z,99687.25
2023-01-19T02:57:27.788Z,99692.41
2023-01-19T03:00:09.704Z,99687.28
2023-01-19T03:02:47.042Z,99684.69
2023-01-19T03:05:30.554Z,99681.28
2023-01-19T03:08:07.736Z,99682.13
2023-01-19T03:10:46.628Z,99684.69
2023-01-19T03:13:24.694Z,99678.69
2023-01-19T03:15:56.622Z,99679.53
2023-01-19T03:18:28.036Z,99669.25
2023-01-19T03:20:58.952Z,99676.09
2023-01-19T03:23:31.914Z,99679.50
2023-01-19T03:26:02.895Z,99682.91
2023-01-19T03:28:31.463Z,99673.41
2023-01-19T03:31:04.348Z,99674.28
2023-01-19T03:33:35.122Z,99671.72
2023-01-19T03:36:08.974Z,99678.56
2023-01-19T03:38:39.482Z,99678.59
2023-01-19T03:41:15.510Z,99683.72
2023-01-19T03:43:45.448Z,99688.00
2023-01-19T03:46:17.318Z,99686.31
2023-01-19T03:48:46.013Z,99682.03
2023-01-19T03:51:14.491Z,99692.28
2023-01-19T03:53:43.027Z,99682.00
2023-01-19T03:56:19.376Z,99693.16
2023-01-19T03:58:47.541Z,99690.59
2023-01-19T04:01:16.119Z,99688.88
2023-01-19T04:03:44.758Z,99691.47
2023-01-19T04:06:12.800Z,99692.31
2023-01-19T04:08:44.392Z,99692.31
2023-01-19T04:11:13.269Z,99694.03
2023-01-19T04:13:42.554Z,99694.88
2023-01-19T04:16:12.399Z,99696.66
2023-01-19T04:18:42.149Z,99694.09
2023-01-19T04:21:10.517Z,99695.81
2023-01-19T04:23:38.368Z,99694.16
2023-01-19T04:26:08.196Z,99689.00
2023-01-19T04:28:37.379Z,99693.31
2023-01-19T04:31:07.641Z,99693.31
2023-01-19T04:33:35.684Z,99687.34
2023-01-19T04:36:04.257Z,99688.22
2023-01-19T04:38:32.148Z,99684.81
2023-01-19T04:41:00.015Z,99691.69
2023-01-19T04:43:27.930Z,99677.13
2023-01-19T04:45:56.184Z,99693.38
2023-01-19T04:48:25.493Z,99685.69
2023-01-19T04:50:53.945Z,99693.38
2023-01-19T04:53:22.200Z,99683.94
2023-01-19T04:55:54.535Z,99678.84
2023-01-19T04:58:22.430Z,99685.69
2023-01-19T05:01:15.875Z,99678.84
2023-01-19T05:03:45.317Z,99677.16
2023-01-19T05:06:13.173Z,99673.72
2023-01-19T05:08:40.961Z,99678.00
2023-01-19T05:11:08.801Z,99675.47
2023-01-19T05:13:37.357Z,99675.50
2023-01-19T05:16:06.200Z,99684.06
2023-01-19T05:18:37.090Z,99689.22
2023-01-19T05:21:07.542Z,99684.09
2023-01-19T05:23:35.534Z,99679.81
2023-01-19T05:26:04.026Z,99681.56
2023-01-19T05:28:33.551Z,99687.59
2023-01-19T05:31:01.490Z,99685.03
2023-01-19T05:33:29.323Z,99692.78
2023-01-19T05:35:57.409Z,99691.13
2023-01-19T05:38:35.457Z,99698.84
2023-01-19T05:41:04.461Z,99698.00
2023-01-19T05:43:32.323Z,99704.91
2023-01-19T05:46:00.621Z,99701.47
2023-01-19T05:48:28.722Z,99706.63
2023-01-19T05:50:59.309Z,99705.84
2023-01-19T05:53:29.216Z,99693.81
2023-01-19T05:56:01.317Z,99696.44
2023-01-19T05:58:29.409Z,99705.91
2023-01-19T06:00:57.340Z,99714.50
2023-01-19T06:03:25.367Z,99708.47
2023-01-19T06:05:53.158Z,99711.03
2023-01-19T06:08:20.985Z,99716.22
2023-01-19T06:10:50.160Z,99723.06
2023-01-19T06:13:18.194Z,99719.59
2023-01-19T06:15:46.840Z,99717.88
2023-01-19T06:18:15.829Z,99717.84
2023-01-19T06:20:43.826Z,99716.97
2023-01-19T06:23:11.705Z,99723.81
2023-01-19T06:25:39.574Z,99728.09
2023-01-19T06:28:08.692Z,99721.22
2023-01-19T06:30:36.585Z,99727.16
2023-01-19T06:33:04.517Z,99730.56
2023-01-19T06:35:32.358Z,99728.00
2023-01-19T06:38:00.136Z,99717.66
2023-01-19T06:40:27.970Z,99734.75
2023-01-19T06:42:55.815Z,99733.88
2023-01-19T06:45:24.954Z,99739.00
2023-01-19T06:47:52.770Z,99739.81
2023-01-19T06:50:20.851Z,99735.53
2023-01-19T06:52:50.978Z,99727.75
2023-01-19T06:55:19.087Z,99737.19
2023-01-19T06:57:47.641Z,99743.09
2023-01-19T07:00:17.248Z,99745.63
2023-01-19T07:02:46.588Z,99753.38
2023-01-19T07:05:14.651Z,99754.28
2023-01-19T07:07:43.269Z,99764.56
2023-01-19T07:10:13.023Z,99760.25
2023-01-19T07:12:40.911Z,99767.16
2023-01-19T07:15:11.695Z,99766.25
2023-01-19T07:17:39.546Z,99771.41
2023-01-19T07:20:14.349Z,99764.59
2023-01-19T07:22:43.496Z,99780.06
2023-01-19T07:25:11.589Z,99784.31
2023-01-19T07:27:40.439Z,99776.59
2023-01-19T07:30:09.588Z,99789.47
2023-01-19T07:32:38.259Z,99792.00
2023-01-19T07:35:08.088Z,99792.88
2023-01-19T07:37:36.339Z,99800.63
2023-01-19T07:40:04.603Z,99798.00
2023-01-19T07:42:32.419Z,99798.81
2023-01-19T07:45:00.957Z,99798.91
2023-01-19T07:47:28.779Z,99802.34
2023-01-19T07:49:56.610Z,99809.19
2023-01-19T07:52:25.756Z,99807.47
2023-01-19T07:54:53.582Z,99806.66
2023-01-19T07:57:22.036Z,99817.75
2023-01-19T07:59:49.860Z,99825.44
2023-01-19T08:02:17.751Z,99824.59
2023-01-19T08:04:48.511Z,99829.72
2023-01-19T08:07:16.489Z,99827.19
2023-01-19T08:09:45.658Z,99834.06
2023-01-19T08:12:13.449Z,99834.09
2023-01-19T08:14:41.368Z,99834.09
2023-01-19T08:17:13.895Z,99834.94
2023-01-19T08:19:43.338Z,99827.25
2023-01-19T08:22:11.123Z,99825.53
2023-01-19T08:24:39.116Z,99835.84
2023-01-19T08:27:09.782Z,99841.84
2023-01-19T08:29:38.222Z,99847.91
2023-01-19T08:32:06.986Z,99841.03
2023-01-19T08:34:35.017Z,99851.34
2023-01-19T08:37:02.801Z,99850.47
2023-01-19T08:39:30.559Z,99851.38
2023-01-19T08:41:59.645Z,99857.41
2023-01-19T08:44:29.128Z,99860.84
2023-01-19T08:46:56.982Z,99863.41
2023-01-19T08:49:24.933Z,99869.47
2023-01-19T08:51:52.732Z,99867.84
2023-01-19T08:54:21.703Z,99868.66
2023-01-19T08:56:49.868Z,99868.69
2023-01-19T08:59:18.153Z,99873.84
2023-01-19T09:01:48.113Z,99879.00
2023-01-19T09:04:16.093Z,99885.06
2023-01-19T09:06:43.883Z,99885.06
2023-01-19T09:09:11.802Z,99885.06
2023-01-19T09:11:39.561Z,99894.44
2023-01-19T09:14:08.331Z,99892.69
2023-01-19T09:16:36.313Z,99895.28
2023-01-19T09:19:08.481Z,99897.06
2023-01-19T09:21:36.488Z,99901.38
2023-01-19T09:24:04.501Z,99904.84
2023-01-19T09:26:33.281Z,99903.97
2023-01-19T09:29:01.191Z,99900.56
2023-01-19T09:31:29.206Z,99897.19
2023-01-19T09:33:57.045Z,99910.03
2023-01-19T09:36:26.327Z,99907.44
2023-01-19T09:38:54.146Z,99897.16
2023-01-19T09:41:24.985Z,99901.44
2023-01-19T09:43:57.680Z,99910.06
2023-01-19T09:46:31.147Z,99903.22
2023-01-19T09:49:04.809Z,99906.63
2023-01-19T09:51:37.460Z,99909.22
2023-01-19T09:54:12.064Z,99916.09
2023-01-19T09:56:40.064Z,99917.84
2023-01-19T09:59:20.648Z,99905.88
2023-01-19T10:02:05.578Z,99917.03
2023-01-19T10:04:38.678Z,99908.50
2023-01-19T10:07:17.124Z,99917.13
2023-01-19T10:10:08.359Z,99920.56
2023-01-19T10:12:44.660Z,99926.63
2023-01-19T10:15:24.549Z,99928.34
2023-01-19T10:18:03.890Z,99924.06
2023-01-19T10:20:37.682Z,99918.06
2023-01-19T10:23:26.300Z,99927.53
2023-01-19T10:25:56.045Z,99924.09
2023-01-19T10:28:26.667Z,99930.13
2023-01-19T10:30:56.357Z,99925.81
2023-01-19T10:33:24.490Z,99941.25
2023-01-19T10:35:52.781Z,99942.06
2023-01-19T10:38:22.717Z,99938.66
2023-01-19T10:40:58.443Z,99935.25
2023-01-19T10:43:41.552Z,99933.50
2023-01-19T10:46:18.543Z,99933.50
2023-01-19T10:48:50.410Z,99938.66
2023-01-19T10:51:19.049Z,99934.41
2023-01-19T10:53:58.778Z,99947.28
2023-01-19T10:56:30.882Z,99932.75
2023-01-19T10:59:01.693Z,99940.47
2023-01-19T11:01:31.157Z,99936.16
2023-01-19T11:04:05.455Z,99932.72
2023-01-19T11:06:35.638Z,99936.19
2023-01-19T11:09:18.522Z,99936.19
2023-01-19T11:11:50.046Z,99934.47
2023-01-19T11:14:20.938Z,99942.19
2023-01-19T11:16:51.525Z,99931.03
2023-01-19T11:19:27.505Z,99930.22
2023-01-19T11:22:10.996Z,99932.81
2023-01-19T11:24:41.046Z,99937.19
2023-01-19T11:27:08.950Z,99941.50
2023-01-19T11:29:38.907Z,99942.41
2023-01-19T11:32:21.142Z,99942.41
2023-01-19T11:34:49.569Z,99933.88
2023-01-19T11:37:34.500Z,99940.78
2023-01-19T11:40:08.679Z,99939.91
2023-01-19T11:42:37.627Z,99939.09
2023-01-19T11:45:13.577Z,99943.41
2023-01-19T11:47:44.317Z,99947.72
2023-01-19T11:50:22.412Z,99945.16
2023-01-19T11:52:54.468Z,99943.44
2023-01-19T11:55:38.970Z,99936.59
2023-01-19T11:58:07.093Z,99947.78
2023-01-19T12:00:38.577Z,99941.78
2023-01-19T12:03:15.051Z,99949.53
2023-01-19T12:05:48.731Z,99942.69
2023-01-19T12:08:21.756Z,99941.81
2023-01-19T12:10:54.187Z,99941.84
2023-01-19T12:13:24.232Z,99950.47
2023-01-19T12:15:57.749Z,99945.31
2023-01-19T12:18:29.335Z,99941.03
2023-01-19T12:20:58.701Z,99954.00
2023-01-19T12:23:36.775Z,99941.97
2023-01-19T12:26:31.846Z,99946.16
2023-01-19T12:29:04.638Z,99941.78
2023-01-19T12:31:32.717Z,99940.00
2023-01-19T12:34:36.038Z,99939.03
2023-01-19T12:37:05.726Z,99940.63
2023-01-19T12:39:35.336Z,99939.69
2023-01-19T12:42:14.512Z,99930.94
2023-01-19T12:44:43.437Z,99928.41
2023-01-19T12:47:24.439Z,99937.84
2023-01-19T12:49:56.432Z,99944.44
2023-01-19T12:52:34.170Z,99934.28
2023-01-19T12:55:07.702Z,99938.47
2023-01-19T12:57:41.711Z,99943.03
2023-01-19T13:00:30.480Z,99944.84
2023-01-19T13:02:59.894Z,99952.72
2023-01-19T13:05:57.859Z,99946.63
2023-01-19T13:08:29.756Z,99958.88
2023-01-19T13:11:20.727Z,99949.38
2023-01-19T13:14:28.213Z,99954.59
2023-01-19T13:17:22.285Z,99956.34
2023-01-19T13:19:59.401Z,99953.72
2023-01-19T13:23:04.587Z,99955.44
2023-01-19T13:25:36.412Z,99951.75
2023-01-19T13:28:10.434Z,99954.50
2023-01-19T13:30:48.342Z,99963.22
2023-01-19T13:33:22.547Z,99964.94
2023-01-19T13:35:53.828Z,99953.75
2023-01-19T13:38:24.031Z,99958.94
2023-01-19T13:40:52.885Z,99956.44
2023-01-19T13:43:27.674Z,99968.53
2023-01-19T13:45:56.383Z,99969.44
2023-01-19T13:48:26.565Z,99969.47
2023-01-19T13:50:59.624Z,99975.47
2023-01-19T13:53:27.825Z,99966.84
2023-01-19T13:56:20.455Z,99977.13
2023-01-19T13:59:15.603Z,99971.88
2023-01-19T14:01:44.117Z,99980.53
2023-01-19T14:04:28.931Z,99980.53
2023-01-19T14:06:59.778Z,99983.97
2023-01-19T14:09:27.635Z,99979.72
2023-01-19T14:12:12.943Z,99981.47
2023-01-19T14:14:41.076Z,99983.16
2023-01-19T14:17:23.247Z,99990.91
2023-01-19T14:19:53.866Z,99986.63
2023-01-19T14:22:22.379Z,99990.09
2023-01-19T14:24:50.208Z,99997.00
2023-01-19T14:27:20.981Z,99986.69
2023-01-19T14:29:50.621Z,99994.44
2023-01-19T14:32:20.713Z,99991.03
2023-01-19T14:34:51.121Z,99989.28
2023-01-19T14:37:29.012Z,99996.22
2023-01-19T14:40:04.437Z,99997.06
2023-01-19T14:42:35.847Z,99997.91
2023-01-19T14:45:07.359Z,99999.66
2023-01-19T14:47:38.636Z,100001.38
2023-01-19T14:50:20.577Z,100003.09
2023-01-19T14:52:56.293Z,100006.53
2023-01-19T14:55:28.892Z,100003.94
2023-01-19T14:57:56.718Z,100005.69
2023-01-19T15:00:25.252Z,100010.00
2023-01-19T15:02:53.398Z,100016.00
2023-01-19T15:05:21.500Z,100011.72
2023-01-19T15:07:49.367Z,100021.19
2023-01-19T15:10:21.739Z,100010.84
2023-01-19T15:12:50.811Z,100022.91
2023-01-19T15:15:22.655Z,100018.59
2023-01-19T15:17:51.269Z,100022.06
2023-01-19T15:20:20.825Z,100024.66
2023-01-19T15:22:49.559Z,100022.06
2023-01-19T15:25:20.696Z,100032.41
2023-01-19T15:27:49.622Z,100022.06
2023-01-19T15:30:20.566Z,100026.38
2023-01-19T15:32:48.634Z,100031.53
2023-01-19T15:35:19.150Z,100026.38
2023-01-19T15:37:47.453Z,100037.56
2023-01-19T15:40:16.254Z,100041.00
2023-01-19T15:42:45.919Z,100034.13
2023-01-19T15:45:35.870Z,100039.28
2023-01-19T15:48:05.794Z,100039.31
2023-01-19T15:50:34.481Z,100044.47
2023-01-19T15:53:02.610Z,100050.47
2023-01-19T15:55:30.398Z,100047.06
2023-01-19T15:58:01.590Z,100048.75
2023-01-19T16:00:32.427Z,100050.47
2023-01-19T16:03:02.078Z,100041.84
2023-01-19T16:05:42.516Z,100053.03
2023-01-19T16:08:11.580Z,100054.75
2023-01-19T16:10:39.445Z,100059.91
2023-01-19T16:13:08.873Z,100065.97
2023-01-19T16:15:37.404Z,100065.09
2023-01-19T16:18:06.131Z,100066.81
2023-01-19T16:20:34.082Z,100071.13
2023-01-19T16:23:14.603Z,100058.19
2023-01-19T16:25:43.098Z,100067.69
2023-01-19T16:28:12.411Z,100068.53
2023-01-19T16:30:40.373Z,100072.00
2023-01-19T16:33:11.505Z,100078.00
2023-01-19T16:35:39.541Z,100085.75
2023-01-19T16:38:09.299Z,100084.03
2023-01-19T16:40:37.581Z,100084.00
2023-01-19T16:43:05.503Z,100079.75
2023-01-19T16:45:34.752Z,100090.03
2023-01-19T16:48:02.793Z,100085.75
2023-01-19T16:50:30.565Z,100084.88
2023-01-19T16:52:59.026Z,100086.59
2023-01-19T16:55:26.943Z,100089.19
2023-01-19T16:57:56.382Z,100093.50
2023-01-19T17:00:24.525Z,100090.91
2023-01-19T17:02:53.818Z,100103.81
2023-01-19T17:05:22.242Z,100110.66
2023-01-19T17:07:50.053Z,100105.53
2023-01-19T17:10:18.237Z,100111.56
2023-01-19T17:12:46.493Z,100115.84
2023-01-19T17:15:14.517Z,100120.16
2023-01-19T17:17:42.469Z,100116.72
2023-01-19T17:20:13.036Z,100118.44
2023-01-19T17:22:41.144Z,100121.88
2023-01-19T17:25:09.702Z,100119.28
2023-01-19T17:27:37.526Z,100116.69
2023-01-19T17:30:06.014Z,100123.56
2023-01-19T17:32:33.818Z,100123.56
2023-01-19T17:35:02.146Z,100123.56
2023-01-19T17:37:31.613Z,100133.03
2023-01-19T17:39:59.640Z,100133.03
2023-01-19T17:42:28.524Z,100136.47
2023-01-19T17:44:58.751Z,100142.50
2023-01-19T17:47:28.227Z,100139.00
2023-01-19T17:49:56.154Z,100150.22
2023-01-19T17:52:23.964Z,100151.06
2023-01-19T17:54:53.247Z,100155.38
2023-01-19T17:57:21.144Z,100155.38
2023-01-19T17:59:48.989Z,100145.03
2023-01-19T18:02:16.926Z,100150.16
2023-01-19T18:04:44.990Z,100150.94
2023-01-19T18:07:12.810Z,100148.34
2023-01-19T18:09:40.630Z,100143.19
2023-01-19T18:12:10.126Z,100147.50
2023-01-19T18:14:38.683Z,100148.41
2023-01-19T18:17:06.723Z,100135.47
2023-01-19T18:19:34.870Z,100144.91
2023-01-19T18:22:03.398Z,100148.31
2023-01-19T18:24:31.295Z,100150.03
2023-01-19T18:26:59.110Z,100148.28
2023-01-19T18:32:27.108Z,100145.72
2023-01-19T18:34:55.102Z,100143.13
2023-01-19T18:37:23.001Z,100139.69
2023-01-19T18:39:50.860Z,100149.09
2023-01-19T18:42:19.014Z,100148.19
2023-01-19T18:44:48.286Z,100148.16
2023-01-19T18:47:16.168Z,100155.84
2023-01-19T18:49:44.252Z,100151.50
2023-01-19T18:52:12.330Z,100156.63
2023-01-19T18:54:40.130Z,100154.03
2023-01-19T18:57:08.038Z,100154.78
2023-01-19T18:59:35.870Z,100151.34
2023-01-19T19:02:06.748Z,100154.78
2023-01-19T19:04:34.732Z,100148.78
2023-01-19T19:07:02.534Z,100155.66
2023-01-19T19:09:30.437Z,100153.09
2023-01-19T19:11:58.320Z,100165.09
2023-01-19T19:14:26.359Z,100160.78
2023-01-19T19:16:54.216Z,100162.47
2023-01-19T19:19:23.412Z,100158.09
2023-01-19T19:21:52.109Z,100162.44
2023-01-19T19:24:20.277Z,100170.97
2023-01-19T19:26:48.164Z,100164.09
2023-01-19T19:29:15.951Z,100170.97
2023-01-19T19:31:43.841Z,100170.09
2023-01-19T19:34:12.650Z,100176.16
2023-01-19T19:36:42.067Z,100179.59
2023-01-19T19:39:10.147Z,100183.84
2023-01-19T19:41:38.818Z,100180.38
2023-01-19T19:44:06.858Z,100180.31
2023-01-19T19:46:34.751Z,100181.16
2023-01-19T19:49:02.622Z,100195.72
2023-01-19T19:51:30.464Z,100191.38
2023-01-19T19:54:01.844Z,100192.25
2023-01-19T19:56:30.973Z,100197.41
2023-01-19T19:59:00.889Z,100201.72
2023-01-19T20:01:33.551Z,100213.72
2023-01-19T20:04:07.045Z,100208.53
2023-01-19T20:06:38.590Z,100212.88
2023-01-19T20:09:09.803Z,100210.38
2023-01-19T20:11:38.780Z,100204.41
2023-01-19T20:14:06.796Z,100203.59
2023-01-19T20:16:34.696Z,100216.53
2023-01-19T20:19:02.885Z,100206.22
2023-01-19T20:21:32.320Z,100217.34
2023-01-19T20:24:01.937Z,100210.53
2023-01-19T20:26:40.158Z,100216.53
2023-01-19T20:29:10.133Z,100220.84
2023-01-19T20:31:56.181Z,100218.19
2023-01-19T20:34:27.894Z,100220.75
2023-01-19T20:36:56.814Z,100217.25
2023-01-19T20:39:25.832Z,100212.94
2023-01-19T20:41:55.032Z,100224.13
2023-01-19T20:44:26.594Z,100220.66
2023-01-19T20:46:55.729Z,100228.34
2023-01-19T20:49:23.927Z,100222.31
2023-01-19T20:51:52.649Z,100233.53
2023-01-19T20:54:24.290Z,100239.53
2023-01-19T20:56:52.235Z,100237.81
2023-01-19T20:59:21.452Z,100231.84
2023-01-19T21:01:49.816Z,100242.16
2023-01-19T21:04:18.374Z,100245.66
2023-01-19T21:06:46.303Z,100255.94
2023-01-19T21:09:14.193Z,100250.78
2023-01-19T21:11:42.031Z,100245.69
2023-01-19T21:14:09.967Z,100257.72
2023-01-19T21:16:39.188Z,100268.06
2023-01-19T21:19:07.093Z,100262.94
2023-01-19T21:21:34.936Z,100258.56
2023-01-19T21:24:04.586Z,100272.28
2023-01-19T21:26:33.341Z,100280.91
2023-01-19T21:29:02.844Z,100277.50
2023-01-19T21:31:31.345Z,100279.25
2023-01-19T21:34:00.726Z,100290.44
2023-01-19T21:36:28.516Z,100291.16
2023-01-19T21:39:00.485Z,100296.22
2023-01-19T21:41:30.416Z,100304.78
2023-01-19T21:43:58.493Z,100303.84
2023-01-19T21:46:29.018Z,100307.31
2023-01-19T21:48:57.222Z,100315.94
2023-01-19T21:51:26.494Z,100316.00
2023-01-19T21:53:55.966Z,100314.25
2023-01-19T21:56:23.926Z,100313.38
2023-01-19T21:58:51.782Z,100317.69
2023-01-19T22:01:20.727Z,100316.84
2023-01-19T22:03:48.586Z,100320.38
2023-01-19T22:06:16.767Z,100326.41
2023-01-19T22:08:47.046Z,100326.41
2023-01-19T22:11:17.159Z,100325.56
2023-01-19T22:13:45.638Z,100332.47
2023-01-19T22:16:15.989Z,100332.47
2023-01-19T22:18:46.303Z,100337.69
2023-01-19T22:21:16.153Z,100329.91
2023-01-19T22:23:45.688Z,100340.25
2023-01-19T22:26:13.651Z,100341.13
2023-01-19T22:28:41.513Z,100338.53
2023-01-19T22:31:12.490Z,100345.41
2023-01-19T22:33:40.627Z,100349.78
2023-01-19T22:36:14.984Z,100349.81
2023-01-19T22:38:44.319Z,100350.66
2023-01-19T22:41:15.251Z,100355.72
2023-01-19T22:43:43.648Z,100356.66
2023-01-19T22:46:11.943Z,100358.41
2023-01-19T22:48:40.413Z,100365.31
2023-01-19T22:51:08.533Z,100363.66
2023-01-19T22:53:36.352Z,100361.84
2023-01-19T22:56:12.154Z,100368.72
2023-01-19T22:58:41.570Z,100366.94
2023-01-19T23:01:10.873Z,100372.91
2023-01-19T23:03:39.299Z,100382.38
2023-01-19T23:06:08.452Z,100378.06
2023-01-19T23:08:37.063Z,100385.03
2023-01-19T23:11:06.346Z,100383.28
2023-01-19T23:13:34.780Z,100388.44
2023-01-19T23:16:04.622Z,100385.00
2023-01-19T23:18:33.343Z,100386.66
2023-01-19T23:21:04.885Z,100384.09
2023-01-19T23:23:33.300Z,100384.91
2023-01-19T23:26:02.365Z,100381.50
2023-01-19T23:28:30.240Z,100391.84
2023-01-19T23:30:58.617Z,100384.91
2023-01-19T23:33:28.077Z,100391.66
2023-01-19T23:35:56.517Z,100385.63
2023-01-19T23:38:24.413Z,100382.19
2023-01-19T23:40:52.266Z,100389.97
2023-01-19T23:43:20.577Z,100390.72
2023-01-19T23:45:49.013Z,100386.34
2023-01-19T23:48:16.906Z,100388.84
2023-01-19T23:50:46.149Z,100394.84
2023-01-19T23:53:14.144Z,100396.44
2023-01-19T23:55:41.958Z,100400.69
2023-01-19T23:58:09.810Z,100402.44
